sensor_id;sensor_type;location;lat;lon;timestamp;P1;durP1;ratioP1;P2;durP2;ratioP2
12910;SDS011;6523;49.758;6.120;2023-05-31T00:02:00;6.17;;;4.20;;
12910;SDS011;6523;49.758;6.120;2023-05-31T00:04:26;9.17;;;4.50;;
12910;SDS011;6523;49.758;6.120;2023-05-31T00:06:51;5.60;;;4.47;;
12910;SDS011;6523;49.758;6.120;2023-05-31T00:09:17;8.43;;;4.40;;
12910;SDS011;6523;49.758;6.120;2023-05-31T00:11:42;5.07;;;4.57;;
12910;SDS011;6523;49.758;6.120;2023-05-31T00:14:08;7.33;;;4.70;;
12910;SDS011;6523;49.758;6.120;2023-05-31T00:16:33;7.27;;;4.37;;
12910;SDS011;6523;49.758;6.120;2023-05-31T00:18:59;5.03;;;3.97;;
12910;SDS011;6523;49.758;6.120;2023-05-31T00:21:24;5.97;;;4.40;;
12910;SDS011;6523;49.758;6.120;2023-05-31T00:23:50;8.40;;;4.37;;
12910;SDS011;6523;49.758;6.120;2023-05-31T00:26:15;9.73;;;4.50;;
12910;SDS011;6523;49.758;6.120;2023-05-31T00:28:41;6.57;;;4.30;;
12910;SDS011;6523;49.758;6.120;2023-05-31T00:31:06;7.33;;;4.47;;
12910;SDS011;6523;49.758;6.120;2023-05-31T00:33:32;7.33;;;4.20;;
12910;SDS011;6523;49.758;6.120;2023-05-31T00:35:57;4.20;;;3.67;;
12910;SDS011;6523;49.758;6.120;2023-05-31T00:38:23;7.20;;;4.57;;
12910;SDS011;6523;49.758;6.120;2023-05-31T00:40:48;7.77;;;4.47;;
12910;SDS011;6523;49.758;6.120;2023-05-31T00:43:14;7.27;;;4.27;;
12910;SDS011;6523;49.758;6.120;2023-05-31T00:45:39;4.93;;;4.07;;
12910;SDS011;6523;49.758;6.120;2023-05-31T00:48:05;4.57;;;4.10;;
12910;SDS011;6523;49.758;6.120;2023-05-31T00:50:31;8.33;;;4.10;;
12910;SDS011;6523;49.758;6.120;2023-05-31T00:52:57;7.80;;;4.30;;
12910;SDS011;6523;49.758;6.120;2023-05-31T00:55:24;7.23;;;4.03;;
12910;SDS011;6523;49.758;6.120;2023-05-31T00:57:50;7.97;;;4.27;;
12910;SDS011;6523;49.758;6.120;2023-05-31T01:00:16;6.23;;;4.03;;
12910;SDS011;6523;49.758;6.120;2023-05-31T01:02:42;5.77;;;3.87;;
12910;SDS011;6523;49.758;6.120;2023-05-31T01:05:08;7.30;;;3.97;;
12910;SDS011;6523;49.758;6.120;2023-05-31T01:07:34;6.20;;;3.33;;
12910;SDS011;6523;49.758;6.120;2023-05-31T01:10:04;8.17;;;4.03;;
12910;SDS011;6523;49.758;6.120;2023-05-31T01:15:38;9.10;;;4.50;;
12910;SDS011;6523;49.758;6.120;2023-05-31T01:18:28;7.13;;;4.20;;
12910;SDS011;6523;49.758;6.120;2023-05-31T01:21:06;6.37;;;3.80;;
12910;SDS011;6523;49.758;6.120;2023-05-31T01:28:53;7.00;;;3.40;;
12910;SDS011;6523;49.758;6.120;2023-05-31T01:31:24;8.00;;;3.70;;
12910;SDS011;6523;49.758;6.120;2023-05-31T01:33:52;6.00;;;3.70;;
12910;SDS011;6523;49.758;6.120;2023-05-31T01:36:19;7.23;;;3.90;;
12910;SDS011;6523;49.758;6.120;2023-05-31T01:38:45;4.10;;;3.70;;
12910;SDS011;6523;49.758;6.120;2023-05-31T01:41:11;6.93;;;3.80;;
12910;SDS011;6523;49.758;6.120;2023-05-31T01:43:40;6.73;;;3.90;;
12910;SDS011;6523;49.758;6.120;2023-05-31T01:46:08;4.80;;;3.20;;
12910;SDS011;6523;49.758;6.120;2023-05-31T01:48:35;7.97;;;3.70;;
12910;SDS011;6523;49.758;6.120;2023-05-31T01:51:02;4.07;;;3.10;;
12910;SDS011;6523;49.758;6.120;2023-05-31T01:53:29;5.83;;;3.77;;
12910;SDS011;6523;49.758;6.120;2023-05-31T01:55:55;4.70;;;3.40;;
12910;SDS011;6523;49.758;6.120;2023-05-31T01:58:22;5.37;;;3.37;;
12910;SDS011;6523;49.758;6.120;2023-05-31T02:00:49;7.57;;;3.93;;
12910;SDS011;6523;49.758;6.120;2023-05-31T02:03:15;7.53;;;3.77;;
12910;SDS011;6523;49.758;6.120;2023-05-31T02:11:20;5.07;;;3.63;;
12910;SDS011;6523;49.758;6.120;2023-05-31T02:13:46;6.13;;;3.33;;
12910;SDS011;6523;49.758;6.120;2023-05-31T02:16:12;5.37;;;3.63;;
12910;SDS011;6523;49.758;6.120;2023-05-31T02:18:38;6.80;;;3.60;;
12910;SDS011;6523;49.758;6.120;2023-05-31T02:21:04;4.97;;;3.30;;
12910;SDS011;6523;49.758;6.120;2023-05-31T02:23:31;5.90;;;3.50;;
12910;SDS011;6523;49.758;6.120;2023-05-31T02:25:56;5.63;;;3.30;;
12910;SDS011;6523;49.758;6.120;2023-05-31T02:28:22;4.90;;;3.40;;
12910;SDS011;6523;49.758;6.120;2023-05-31T02:30:57;8.90;;;4.30;;
12910;SDS011;6523;49.758;6.120;2023-05-31T02:33:24;8.97;;;5.03;;
12910;SDS011;6523;49.758;6.120;2023-05-31T02:35:50;6.97;;;3.80;;
12910;SDS011;6523;49.758;6.120;2023-05-31T02:38:16;7.03;;;3.70;;
12910;SDS011;6523;49.758;6.120;2023-05-31T02:40:42;5.20;;;3.47;;
12910;SDS011;6523;49.758;6.120;2023-05-31T02:43:07;9.67;;;3.53;;
12910;SDS011;6523;49.758;6.120;2023-05-31T02:45:32;7.37;;;3.70;;
12910;SDS011;6523;49.758;6.120;2023-05-31T02:47:58;6.00;;;3.53;;
12910;SDS011;6523;49.758;6.120;2023-05-31T02:50:27;7.77;;;3.80;;
12910;SDS011;6523;49.758;6.120;2023-05-31T02:52:52;6.17;;;3.67;;
12910;SDS011;6523;49.758;6.120;2023-05-31T02:55:18;6.63;;;3.50;;
12910;SDS011;6523;49.758;6.120;2023-05-31T02:57:43;6.63;;;4.43;;
12910;SDS011;6523;49.758;6.120;2023-05-31T03:00:10;8.10;;;4.40;;
12910;SDS011;6523;49.758;6.120;2023-05-31T03:02:36;9.60;;;5.00;;
12910;SDS011;6523;49.758;6.120;2023-05-31T03:05:03;9.07;;;4.70;;
12910;SDS011;6523;49.758;6.120;2023-05-31T03:07:30;7.60;;;4.40;;
12910;SDS011;6523;49.758;6.120;2023-05-31T03:09:55;7.97;;;4.20;;
12910;SDS011;6523;49.758;6.120;2023-05-31T03:12:21;11.20;;;4.60;;
12910;SDS011;6523;49.758;6.120;2023-05-31T03:14:46;6.53;;;4.60;;
12910;SDS011;6523;49.758;6.120;2023-05-31T03:17:12;8.37;;;4.27;;
12910;SDS011;6523;49.758;6.120;2023-05-31T03:19:37;8.13;;;4.43;;
12910;SDS011;6523;49.758;6.120;2023-05-31T03:22:03;10.20;;;4.63;;
12910;SDS011;6523;49.758;6.120;2023-05-31T03:24:29;5.10;;;3.93;;
12910;SDS011;6523;49.758;6.120;2023-05-31T03:26:55;8.63;;;3.80;;
12910;SDS011;6523;49.758;6.120;2023-05-31T03:29:21;7.43;;;3.60;;
12910;SDS011;6523;49.758;6.120;2023-05-31T03:31:46;7.73;;;3.70;;
12910;SDS011;6523;49.758;6.120;2023-05-31T03:34:12;7.43;;;3.90;;
12910;SDS011;6523;49.758;6.120;2023-05-31T03:36:37;9.70;;;4.00;;
12910;SDS011;6523;49.758;6.120;2023-05-31T03:39:03;8.00;;;3.80;;
12910;SDS011;6523;49.758;6.120;2023-05-31T03:41:28;4.83;;;3.57;;
12910;SDS011;6523;49.758;6.120;2023-05-31T03:43:54;7.93;;;3.77;;
12910;SDS011;6523;49.758;6.120;2023-05-31T03:46:20;7.70;;;3.63;;
12910;SDS011;6523;49.758;6.120;2023-05-31T03:48:46;10.23;;;4.17;;
12910;SDS011;6523;49.758;6.120;2023-05-31T03:51:11;6.47;;;3.70;;
12910;SDS011;6523;49.758;6.120;2023-05-31T03:53:37;10.17;;;3.67;;
12910;SDS011;6523;49.758;6.120;2023-05-31T03:56:02;7.87;;;3.97;;
12910;SDS011;6523;49.758;6.120;2023-05-31T03:58:28;6.00;;;3.60;;
12910;SDS011;6523;49.758;6.120;2023-05-31T04:00:54;8.10;;;3.73;;
12910;SDS011;6523;49.758;6.120;2023-05-31T04:03:20;6.80;;;3.57;;
12910;SDS011;6523;49.758;6.120;2023-05-31T04:05:45;11.17;;;3.67;;
12910;SDS011;6523;49.758;6.120;2023-05-31T04:08:11;6.93;;;3.60;;
12910;SDS011;6523;49.758;6.120;2023-05-31T04:10:37;6.57;;;3.53;;
12910;SDS011;6523;49.758;6.120;2023-05-31T04:13:02;5.70;;;3.83;;
12910;SDS011;6523;49.758;6.120;2023-05-31T04:15:28;6.70;;;3.37;;
12910;SDS011;6523;49.758;6.120;2023-05-31T04:17:53;9.13;;;4.37;;
12910;SDS011;6523;49.758;6.120;2023-05-31T04:20:20;7.87;;;4.23;;
12910;SDS011;6523;49.758;6.120;2023-05-31T04:22:46;5.03;;;3.60;;
12910;SDS011;6523;49.758;6.120;2023-05-31T04:25:12;5.73;;;3.60;;
12910;SDS011;6523;49.758;6.120;2023-05-31T04:27:38;8.47;;;3.83;;
12910;SDS011;6523;49.758;6.120;2023-05-31T04:30:05;6.93;;;3.87;;
12910;SDS011;6523;49.758;6.120;2023-05-31T04:32:31;7.53;;;3.97;;
12910;SDS011;6523;49.758;6.120;2023-05-31T04:34:59;6.30;;;3.90;;
12910;SDS011;6523;49.758;6.120;2023-05-31T04:37:32;7.27;;;3.83;;
12910;SDS011;6523;49.758;6.120;2023-05-31T04:39:58;6.73;;;3.80;;
12910;SDS011;6523;49.758;6.120;2023-05-31T04:42:24;8.03;;;4.47;;
12910;SDS011;6523;49.758;6.120;2023-05-31T04:44:54;8.67;;;3.77;;
12910;SDS011;6523;49.758;6.120;2023-05-31T04:47:23;6.57;;;3.80;;
12910;SDS011;6523;49.758;6.120;2023-05-31T04:49:49;7.43;;;3.40;;
12910;SDS011;6523;49.758;6.120;2023-05-31T04:52:15;8.07;;;4.00;;
12910;SDS011;6523;49.758;6.120;2023-05-31T04:54:41;5.40;;;3.57;;
12910;SDS011;6523;49.758;6.120;2023-05-31T04:57:07;6.90;;;3.87;;
12910;SDS011;6523;49.758;6.120;2023-05-31T04:59:32;6.23;;;3.80;;
12910;SDS011;6523;49.758;6.120;2023-05-31T05:01:58;8.53;;;3.53;;
12910;SDS011;6523;49.758;6.120;2023-05-31T05:04:23;7.23;;;3.80;;
12910;SDS011;6523;49.758;6.120;2023-05-31T05:06:49;6.27;;;3.77;;
12910;SDS011;6523;49.758;6.120;2023-05-31T05:09:15;10.97;;;3.63;;
12910;SDS011;6523;49.758;6.120;2023-05-31T05:11:40;8.30;;;3.63;;
12910;SDS011;6523;49.758;6.120;2023-05-31T05:14:06;7.20;;;3.73;;
12910;SDS011;6523;49.758;6.120;2023-05-31T05:16:31;6.23;;;3.53;;
12910;SDS011;6523;49.758;6.120;2023-05-31T05:18:57;6.97;;;3.70;;
12910;SDS011;6523;49.758;6.120;2023-05-31T05:21:22;7.23;;;4.10;;
12910;SDS011;6523;49.758;6.120;2023-05-31T05:23:48;4.47;;;3.30;;
12910;SDS011;6523;49.758;6.120;2023-05-31T05:26:13;5.07;;;3.47;;
12910;SDS011;6523;49.758;6.120;2023-05-31T05:28:39;6.27;;;3.50;;
12910;SDS011;6523;49.758;6.120;2023-05-31T05:31:05;6.07;;;3.53;;
12910;SDS011;6523;49.758;6.120;2023-05-31T05:33:30;8.20;;;3.43;;
12910;SDS011;6523;49.758;6.120;2023-05-31T05:35:56;7.40;;;3.10;;
12910;SDS011;6523;49.758;6.120;2023-05-31T05:38:21;7.73;;;3.10;;
12910;SDS011;6523;49.758;6.120;2023-05-31T05:40:47;5.90;;;3.53;;
12910;SDS011;6523;49.758;6.120;2023-05-31T05:43:13;8.83;;;3.23;;
12910;SDS011;6523;49.758;6.120;2023-05-31T05:45:39;7.47;;;3.33;;
12910;SDS011;6523;49.758;6.120;2023-05-31T05:48:04;6.93;;;3.73;;
12910;SDS011;6523;49.758;6.120;2023-05-31T05:50:30;6.77;;;3.67;;
12910;SDS011;6523;49.758;6.120;2023-05-31T05:52:56;5.80;;;3.13;;
12910;SDS011;6523;49.758;6.120;2023-05-31T05:55:21;7.77;;;3.40;;
12910;SDS011;6523;49.758;6.120;2023-05-31T05:57:47;6.77;;;3.13;;
12910;SDS011;6523;49.758;6.120;2023-05-31T06:00:13;6.90;;;3.20;;
12910;SDS011;6523;49.758;6.120;2023-05-31T06:02:40;6.97;;;3.33;;
12910;SDS011;6523;49.758;6.120;2023-05-31T06:05:06;4.07;;;3.20;;
12910;SDS011;6523;49.758;6.120;2023-05-31T06:07:32;6.33;;;3.20;;
12910;SDS011;6523;49.758;6.120;2023-05-31T06:09:58;9.77;;;3.40;;
12910;SDS011;6523;49.758;6.120;2023-05-31T06:12:28;9.30;;;3.30;;
12910;SDS011;6523;49.758;6.120;2023-05-31T06:14:55;8.37;;;3.60;;
12910;SDS011;6523;49.758;6.120;2023-05-31T06:17:20;6.33;;;3.17;;
12910;SDS011;6523;49.758;6.120;2023-05-31T06:19:46;7.27;;;3.17;;
12910;SDS011;6523;49.758;6.120;2023-05-31T06:22:12;7.90;;;3.80;;
12910;SDS011;6523;49.758;6.120;2023-05-31T06:24:37;5.33;;;3.00;;
12910;SDS011;6523;49.758;6.120;2023-05-31T06:27:03;5.70;;;3.33;;
12910;SDS011;6523;49.758;6.120;2023-05-31T06:29:30;4.93;;;2.73;;
12910;SDS011;6523;49.758;6.120;2023-05-31T06:31:55;8.10;;;2.73;;
12910;SDS011;6523;49.758;6.120;2023-05-31T06:34:21;5.43;;;2.97;;
12910;SDS011;6523;49.758;6.120;2023-05-31T06:36:47;4.27;;;3.00;;
12910;SDS011;6523;49.758;6.120;2023-05-31T06:39:12;4.40;;;2.43;;
12910;SDS011;6523;49.758;6.120;2023-05-31T06:41:38;6.57;;;3.07;;
12910;SDS011;6523;49.758;6.120;2023-05-31T06:44:04;4.83;;;2.77;;
12910;SDS011;6523;49.758;6.120;2023-05-31T06:46:29;6.27;;;2.97;;
12910;SDS011;6523;49.758;6.120;2023-05-31T06:48:55;4.40;;;2.80;;
12910;SDS011;6523;49.758;6.120;2023-05-31T06:51:21;4.73;;;2.87;;
12910;SDS011;6523;49.758;6.120;2023-05-31T06:53:48;3.50;;;2.73;;
12910;SDS011;6523;49.758;6.120;2023-05-31T06:56:14;4.67;;;2.80;;
12910;SDS011;6523;49.758;6.120;2023-05-31T06:58:40;4.67;;;2.70;;
12910;SDS011;6523;49.758;6.120;2023-05-31T07:01:06;4.37;;;2.67;;
12910;SDS011;6523;49.758;6.120;2023-05-31T07:03:32;4.07;;;2.53;;
12910;SDS011;6523;49.758;6.120;2023-05-31T07:05:58;5.63;;;3.17;;
12910;SDS011;6523;49.758;6.120;2023-05-31T07:08:23;7.00;;;2.80;;
12910;SDS011;6523;49.758;6.120;2023-05-31T07:10:49;5.13;;;2.50;;
12910;SDS011;6523;49.758;6.120;2023-05-31T07:13:14;6.60;;;2.90;;
12910;SDS011;6523;49.758;6.120;2023-05-31T07:15:40;3.23;;;2.47;;
12910;SDS011;6523;49.758;6.120;2023-05-31T07:18:06;5.00;;;2.80;;
12910;SDS011;6523;49.758;6.120;2023-05-31T07:20:31;4.97;;;2.90;;
12910;SDS011;6523;49.758;6.120;2023-05-31T07:22:57;5.73;;;2.67;;
12910;SDS011;6523;49.758;6.120;2023-05-31T07:25:23;6.73;;;2.90;;
12910;SDS011;6523;49.758;6.120;2023-05-31T07:27:49;6.57;;;2.87;;
12910;SDS011;6523;49.758;6.120;2023-05-31T07:30:15;5.50;;;2.60;;
12910;SDS011;6523;49.758;6.120;2023-05-31T07:32:40;5.17;;;2.80;;
12910;SDS011;6523;49.758;6.120;2023-05-31T07:35:06;2.87;;;2.67;;
12910;SDS011;6523;49.758;6.120;2023-05-31T07:37:31;4.40;;;2.20;;
12910;SDS011;6523;49.758;6.120;2023-05-31T07:39:57;4.43;;;2.30;;
12910;SDS011;6523;49.758;6.120;2023-05-31T07:42:23;4.67;;;2.50;;
12910;SDS011;6523;49.758;6.120;2023-05-31T07:44:49;5.63;;;2.90;;
12910;SDS011;6523;49.758;6.120;2023-05-31T07:47:17;3.50;;;2.83;;
12910;SDS011;6523;49.758;6.120;2023-05-31T07:49:45;5.23;;;2.63;;
12910;SDS011;6523;49.758;6.120;2023-05-31T07:52:10;3.67;;;2.30;;
12910;SDS011;6523;49.758;6.120;2023-05-31T07:54:36;4.50;;;2.97;;
12910;SDS011;6523;49.758;6.120;2023-05-31T07:57:01;4.27;;;2.50;;
12910;SDS011;6523;49.758;6.120;2023-05-31T07:59:28;4.60;;;2.57;;
12910;SDS011;6523;49.758;6.120;2023-05-31T08:01:54;5.07;;;2.90;;
12910;SDS011;6523;49.758;6.120;2023-05-31T08:04:20;4.83;;;2.37;;
12910;SDS011;6523;49.758;6.120;2023-05-31T08:06:45;4.50;;;2.47;;
12910;SDS011;6523;49.758;6.120;2023-05-31T08:09:11;7.23;;;2.57;;
12910;SDS011;6523;49.758;6.120;2023-05-31T08:11:36;7.33;;;2.80;;
12910;SDS011;6523;49.758;6.120;2023-05-31T08:14:02;3.97;;;2.57;;
12910;SDS011;6523;49.758;6.120;2023-05-31T08:16:28;4.33;;;2.50;;
12910;SDS011;6523;49.758;6.120;2023-05-31T08:18:54;4.67;;;2.80;;
12910;SDS011;6523;49.758;6.120;2023-05-31T08:21:20;7.40;;;2.53;;
12910;SDS011;6523;49.758;6.120;2023-05-31T08:23:46;5.13;;;2.47;;
12910;SDS011;6523;49.758;6.120;2023-05-31T08:26:11;5.07;;;2.70;;
12910;SDS011;6523;49.758;6.120;2023-05-31T08:28:37;7.47;;;2.80;;
12910;SDS011;6523;49.758;6.120;2023-05-31T08:31:02;4.80;;;2.27;;
12910;SDS011;6523;49.758;6.120;2023-05-31T08:33:28;6.57;;;2.20;;
12910;SDS011;6523;49.758;6.120;2023-05-31T08:35:55;6.37;;;2.33;;
12910;SDS011;6523;49.758;6.120;2023-05-31T08:38:25;3.80;;;2.30;;
12910;SDS011;6523;49.758;6.120;2023-05-31T08:40:51;3.43;;;2.50;;
12910;SDS011;6523;49.758;6.120;2023-05-31T08:43:17;5.17;;;2.10;;
12910;SDS011;6523;49.758;6.120;2023-05-31T08:45:46;3.77;;;2.60;;
12910;SDS011;6523;49.758;6.120;2023-05-31T08:48:28;3.67;;;2.37;;
12910;SDS011;6523;49.758;6.120;2023-05-31T08:50:58;5.80;;;2.43;;
12910;SDS011;6523;49.758;6.120;2023-05-31T08:53:25;2.63;;;2.17;;
12910;SDS011;6523;49.758;6.120;2023-05-31T08:55:51;3.47;;;2.10;;
12910;SDS011;6523;49.758;6.120;2023-05-31T08:58:18;4.30;;;2.57;;
12910;SDS011;6523;49.758;6.120;2023-05-31T09:00:45;2.57;;;2.10;;
12910;SDS011;6523;49.758;6.120;2023-05-31T09:03:11;4.57;;;2.47;;
12910;SDS011;6523;49.758;6.120;2023-05-31T09:05:37;2.90;;;2.30;;
12910;SDS011;6523;49.758;6.120;2023-05-31T09:08:03;3.13;;;2.27;;
12910;SDS011;6523;49.758;6.120;2023-05-31T09:10:29;3.07;;;2.30;;
12910;SDS011;6523;49.758;6.120;2023-05-31T09:12:55;2.27;;;1.80;;
12910;SDS011;6523;49.758;6.120;2023-05-31T09:15:22;3.47;;;2.00;;
12910;SDS011;6523;49.758;6.120;2023-05-31T09:17:52;3.33;;;2.20;;
12910;SDS011;6523;49.758;6.120;2023-05-31T09:20:21;3.83;;;2.40;;
12910;SDS011;6523;49.758;6.120;2023-05-31T09:23:00;2.17;;;1.77;;
12910;SDS011;6523;49.758;6.120;2023-05-31T09:25:27;3.63;;;2.00;;
12910;SDS011;6523;49.758;6.120;2023-05-31T09:27:53;3.67;;;2.20;;
12910;SDS011;6523;49.758;6.120;2023-05-31T09:30:24;2.97;;;2.10;;
12910;SDS011;6523;49.758;6.120;2023-05-31T09:32:53;5.00;;;2.10;;
12910;SDS011;6523;49.758;6.120;2023-05-31T09:35:19;4.37;;;2.10;;
12910;SDS011;6523;49.758;6.120;2023-05-31T09:37:49;4.30;;;2.10;;
12910;SDS011;6523;49.758;6.120;2023-05-31T09:40:25;3.33;;;2.03;;
12910;SDS011;6523;49.758;6.120;2023-05-31T09:42:52;3.73;;;2.13;;
12910;SDS011;6523;49.758;6.120;2023-05-31T09:45:19;3.03;;;1.87;;
12910;SDS011;6523;49.758;6.120;2023-05-31T09:47:45;3.93;;;1.90;;
12910;SDS011;6523;49.758;6.120;2023-05-31T09:50:15;2.73;;;2.00;;
12910;SDS011;6523;49.758;6.120;2023-05-31T09:52:42;3.80;;;2.20;;
12910;SDS011;6523;49.758;6.120;2023-05-31T09:55:09;3.87;;;2.20;;
12910;SDS011;6523;49.758;6.120;2023-05-31T09:57:37;5.80;;;2.13;;
12910;SDS011;6523;49.758;6.120;2023-05-31T10:00:08;4.33;;;2.30;;
12910;SDS011;6523;49.758;6.120;2023-05-31T10:02:50;3.10;;;2.17;;
12910;SDS011;6523;49.758;6.120;2023-05-31T10:05:19;5.50;;;2.30;;
12910;SDS011;6523;49.758;6.120;2023-05-31T10:07:49;2.90;;;1.97;;
12910;SDS011;6523;49.758;6.120;2023-05-31T10:10:15;3.13;;;2.20;;
12910;SDS011;6523;49.758;6.120;2023-05-31T10:12:51;3.37;;;2.07;;
12910;SDS011;6523;49.758;6.120;2023-05-31T10:15:26;6.13;;;2.57;;
12910;SDS011;6523;49.758;6.120;2023-05-31T10:17:57;2.80;;;1.90;;
12910;SDS011;6523;49.758;6.120;2023-05-31T10:20:29;3.50;;;2.20;;
12910;SDS011;6523;49.758;6.120;2023-05-31T10:23:00;3.13;;;1.97;;
12910;SDS011;6523;49.758;6.120;2023-05-31T10:25:32;2.87;;;2.30;;
12910;SDS011;6523;49.758;6.120;2023-05-31T10:28:17;4.07;;;1.90;;
12910;SDS011;6523;49.758;6.120;2023-05-31T10:30:46;3.30;;;2.33;;
12910;SDS011;6523;49.758;6.120;2023-05-31T10:33:16;6.07;;;2.30;;
12910;SDS011;6523;49.758;6.120;2023-05-31T10:35:44;2.50;;;2.07;;
12910;SDS011;6523;49.758;6.120;2023-05-31T10:38:10;3.93;;;2.17;;
12910;SDS011;6523;49.758;6.120;2023-05-31T10:40:46;3.37;;;2.00;;
12910;SDS011;6523;49.758;6.120;2023-05-31T10:43:22;5.97;;;2.47;;
12910;SDS011;6523;49.758;6.120;2023-05-31T10:46:01;4.07;;;2.00;;
12910;SDS011;6523;49.758;6.120;2023-05-31T10:51:18;2.97;;;2.30;;
12910;SDS011;6523;49.758;6.120;2023-05-31T10:53:45;3.60;;;1.80;;
12910;SDS011;6523;49.758;6.120;2023-05-31T10:56:12;5.10;;;2.67;;
12910;SDS011;6523;49.758;6.120;2023-05-31T10:58:39;3.10;;;2.30;;
12910;SDS011;6523;49.758;6.120;2023-05-31T11:01:12;3.87;;;2.20;;
12910;SDS011;6523;49.758;6.120;2023-05-31T11:03:44;2.87;;;2.00;;
12910;SDS011;6523;49.758;6.120;2023-05-31T11:06:15;2.97;;;2.07;;
12910;SDS011;6523;49.758;6.120;2023-05-31T11:13:56;3.87;;;2.40;;
12910;SDS011;6523;49.758;6.120;2023-05-31T11:16:27;5.63;;;2.30;;
12910;SDS011;6523;49.758;6.120;2023-05-31T11:19:13;3.60;;;2.30;;
12910;SDS011;6523;49.758;6.120;2023-05-31T11:24:35;2.70;;;2.20;;
12910;SDS011;6523;49.758;6.120;2023-05-31T11:27:02;3.83;;;2.10;;
12910;SDS011;6523;49.758;6.120;2023-05-31T11:32:12;3.60;;;2.10;;
12910;SDS011;6523;49.758;6.120;2023-05-31T11:34:55;5.73;;;2.47;;
12910;SDS011;6523;49.758;6.120;2023-05-31T11:37:23;7.63;;;2.50;;
12910;SDS011;6523;49.758;6.120;2023-05-31T11:39:55;2.87;;;2.37;;
12910;SDS011;6523;49.758;6.120;2023-05-31T11:42:21;3.20;;;2.03;;
12910;SDS011;6523;49.758;6.120;2023-05-31T11:44:47;4.53;;;2.73;;
12910;SDS011;6523;49.758;6.120;2023-05-31T11:47:21;8.00;;;2.57;;
12910;SDS011;6523;49.758;6.120;2023-05-31T11:49:50;2.80;;;2.40;;
12910;SDS011;6523;49.758;6.120;2023-05-31T11:52:17;2.97;;;2.40;;
12910;SDS011;6523;49.758;6.120;2023-05-31T11:54:45;3.13;;;1.90;;
12910;SDS011;6523;49.758;6.120;2023-05-31T11:57:13;4.30;;;2.10;;
12910;SDS011;6523;49.758;6.120;2023-05-31T11:59:39;5.50;;;2.10;;
12910;SDS011;6523;49.758;6.120;2023-05-31T12:02:07;2.93;;;2.00;;
12910;SDS011;6523;49.758;6.120;2023-05-31T12:07:07;5.77;;;2.40;;
12910;SDS011;6523;49.758;6.120;2023-05-31T12:09:33;2.20;;;1.97;;
12910;SDS011;6523;49.758;6.120;2023-05-31T12:11:59;2.73;;;2.10;;
12910;SDS011;6523;49.758;6.120;2023-05-31T12:14:28;4.93;;;2.63;;
12910;SDS011;6523;49.758;6.120;2023-05-31T12:16:54;2.83;;;2.10;;
12910;SDS011;6523;49.758;6.120;2023-05-31T12:19:20;4.63;;;2.60;;
12910;SDS011;6523;49.758;6.120;2023-05-31T12:21:46;2.30;;;2.10;;
12910;SDS011;6523;49.758;6.120;2023-05-31T12:24:13;6.73;;;2.37;;
12910;SDS011;6523;49.758;6.120;2023-05-31T12:26:40;3.50;;;2.20;;
12910;SDS011;6523;49.758;6.120;2023-05-31T12:29:08;5.93;;;2.23;;
12910;SDS011;6523;49.758;6.120;2023-05-31T12:31:36;33.10;;;6.37;;
12910;SDS011;6523;49.758;6.120;2023-05-31T12:34:05;12.17;;;3.17;;
12910;SDS011;6523;49.758;6.120;2023-05-31T12:36:39;5.33;;;2.30;;
12910;SDS011;6523;49.758;6.120;2023-05-31T12:39:21;4.57;;;2.53;;
12910;SDS011;6523;49.758;6.120;2023-05-31T12:41:49;2.50;;;2.30;;
12910;SDS011;6523;49.758;6.120;2023-05-31T12:44:19;2.33;;;2.10;;
12910;SDS011;6523;49.758;6.120;2023-05-31T12:46:46;3.20;;;1.97;;
12910;SDS011;6523;49.758;6.120;2023-05-31T12:49:22;2.57;;;2.10;;
12910;SDS011;6523;49.758;6.120;2023-05-31T12:52:04;3.17;;;1.93;;
12910;SDS011;6523;49.758;6.120;2023-05-31T12:54:40;3.73;;;2.10;;
12910;SDS011;6523;49.758;6.120;2023-05-31T12:57:06;3.87;;;2.10;;
12910;SDS011;6523;49.758;6.120;2023-05-31T12:59:36;3.70;;;1.87;;
12910;SDS011;6523;49.758;6.120;2023-05-31T13:02:02;2.57;;;1.80;;
12910;SDS011;6523;49.758;6.120;2023-05-31T13:04:29;3.97;;;2.33;;
12910;SDS011;6523;49.758;6.120;2023-05-31T13:06:55;3.50;;;1.90;;
12910;SDS011;6523;49.758;6.120;2023-05-31T13:09:24;4.33;;;2.23;;
12910;SDS011;6523;49.758;6.120;2023-05-31T13:11:50;3.77;;;2.60;;
12910;SDS011;6523;49.758;6.120;2023-05-31T13:14:17;3.30;;;2.53;;
12910;SDS011;6523;49.758;6.120;2023-05-31T13:16:44;4.27;;;2.20;;
12910;SDS011;6523;49.758;6.120;2023-05-31T13:19:10;3.47;;;2.27;;
12910;SDS011;6523;49.758;6.120;2023-05-31T13:21:37;3.03;;;2.00;;
12910;SDS011;6523;49.758;6.120;2023-05-31T13:24:04;2.10;;;1.90;;
12910;SDS011;6523;49.758;6.120;2023-05-31T13:26:31;2.27;;;1.80;;
12910;SDS011;6523;49.758;6.120;2023-05-31T13:28:57;3.20;;;2.00;;
12910;SDS011;6523;49.758;6.120;2023-05-31T13:31:24;3.17;;;2.17;;
12910;SDS011;6523;49.758;6.120;2023-05-31T13:33:50;3.43;;;2.10;;
12910;SDS011;6523;49.758;6.120;2023-05-31T13:36:16;3.90;;;2.10;;
12910;SDS011;6523;49.758;6.120;2023-05-31T13:38:42;3.50;;;2.47;;
12910;SDS011;6523;49.758;6.120;2023-05-31T13:41:08;2.57;;;2.07;;
12910;SDS011;6523;49.758;6.120;2023-05-31T13:43:34;3.27;;;1.73;;
12910;SDS011;6523;49.758;6.120;2023-05-31T13:46:02;4.37;;;2.13;;
12910;SDS011;6523;49.758;6.120;2023-05-31T13:48:27;2.50;;;2.10;;
12910;SDS011;6523;49.758;6.120;2023-05-31T13:50:53;3.43;;;2.17;;
12910;SDS011;6523;49.758;6.120;2023-05-31T13:53:19;3.30;;;1.97;;
12910;SDS011;6523;49.758;6.120;2023-05-31T13:55:44;2.63;;;1.93;;
12910;SDS011;6523;49.758;6.120;2023-05-31T13:58:11;3.37;;;1.70;;
12910;SDS011;6523;49.758;6.120;2023-05-31T14:00:37;2.03;;;1.93;;
12910;SDS011;6523;49.758;6.120;2023-05-31T14:03:03;3.03;;;2.17;;
12910;SDS011;6523;49.758;6.120;2023-05-31T14:05:28;4.53;;;1.70;;
12910;SDS011;6523;49.758;6.120;2023-05-31T14:07:55;2.40;;;1.90;;
12910;SDS011;6523;49.758;6.120;2023-05-31T14:10:20;2.13;;;1.90;;
12910;SDS011;6523;49.758;6.120;2023-05-31T14:12:46;17.30;;;5.63;;
12910;SDS011;6523;49.758;6.120;2023-05-31T14:15:13;2.13;;;1.80;;
12910;SDS011;6523;49.758;6.120;2023-05-31T14:17:39;4.00;;;1.90;;
12910;SDS011;6523;49.758;6.120;2023-05-31T14:20:04;3.27;;;1.70;;
12910;SDS011;6523;49.758;6.120;2023-05-31T14:22:31;2.60;;;1.87;;
12910;SDS011;6523;49.758;6.120;2023-05-31T14:24:57;3.60;;;1.90;;
12910;SDS011;6523;49.758;6.120;2023-05-31T14:27:22;3.80;;;1.93;;
12910;SDS011;6523;49.758;6.120;2023-05-31T14:29:48;3.83;;;2.10;;
12910;SDS011;6523;49.758;6.120;2023-05-31T14:32:13;2.93;;;1.77;;
12910;SDS011;6523;49.758;6.120;2023-05-31T14:34:40;8.00;;;2.00;;
12910;SDS011;6523;49.758;6.120;2023-05-31T14:37:06;2.23;;;1.90;;
12910;SDS011;6523;49.758;6.120;2023-05-31T14:39:32;2.50;;;2.07;;
12910;SDS011;6523;49.758;6.120;2023-05-31T14:41:57;2.30;;;1.70;;
12910;SDS011;6523;49.758;6.120;2023-05-31T14:44:23;3.10;;;1.87;;
12910;SDS011;6523;49.758;6.120;2023-05-31T14:46:49;2.27;;;1.90;;
12910;SDS011;6523;49.758;6.120;2023-05-31T14:49:17;1.90;;;1.70;;
12910;SDS011;6523;49.758;6.120;2023-05-31T14:51:43;3.33;;;1.93;;
12910;SDS011;6523;49.758;6.120;2023-05-31T14:54:09;2.23;;;1.70;;
12910;SDS011;6523;49.758;6.120;2023-05-31T14:56:34;1.70;;;1.60;;
12910;SDS011;6523;49.758;6.120;2023-05-31T14:59:00;3.50;;;1.57;;
12910;SDS011;6523;49.758;6.120;2023-05-31T15:01:25;2.50;;;1.70;;
12910;SDS011;6523;49.758;6.120;2023-05-31T15:03:51;2.43;;;2.07;;
12910;SDS011;6523;49.758;6.120;2023-05-31T15:06:16;3.73;;;1.90;;
12910;SDS011;6523;49.758;6.120;2023-05-31T15:08:42;2.50;;;1.73;;
12910;SDS011;6523;49.758;6.120;2023-05-31T15:11:08;3.90;;;1.70;;
12910;SDS011;6523;49.758;6.120;2023-05-31T15:13:33;2.17;;;1.67;;
12910;SDS011;6523;49.758;6.120;2023-05-31T15:15:59;2.50;;;1.87;;
12910;SDS011;6523;49.758;6.120;2023-05-31T15:18:25;3.87;;;1.33;;
12910;SDS011;6523;49.758;6.120;2023-05-31T15:20:50;2.23;;;1.50;;
12910;SDS011;6523;49.758;6.120;2023-05-31T15:23:16;2.57;;;1.57;;
12910;SDS011;6523;49.758;6.120;2023-05-31T15:25:42;3.07;;;1.90;;
12910;SDS011;6523;49.758;6.120;2023-05-31T15:28:08;2.10;;;1.60;;
12910;SDS011;6523;49.758;6.120;2023-05-31T15:30:33;3.60;;;1.20;;